sensor_id;sensor_type;location;lat;lon;timestamp;temperature;humidity
24148;DHT22;12309;51.450;-2.624;2023-08-31T00:02:06;13.70;99.90
24148;DHT22;12309;51.450;-2.624;2023-08-31T00:06:58;13.60;99.90
24148;DHT22;12309;51.450;-2.624;2023-08-31T00:09:24;13.50;99.90
24148;DHT22;12309;51.450;-2.624;2023-08-31T00:11:50;13.50;99.90
24148;DHT22;12309;51.450;-2.624;2023-08-31T00:14:16;13.40;99.90
24148;DHT22;12309;51.450;-2.624;2023-08-31T00:16:43;13.80;99.90
24148;DHT22;12309;51.450;-2.624;2023-08-31T00:19:11;13.80;99.90
24148;DHT22;12309;51.450;-2.624;2023-08-31T00:21:37;13.70;99.90
24148;DHT22;12309;51.450;-2.624;2023-08-31T00:24:03;13.50;99.90
24148;DHT22;12309;51.450;-2.624;2023-08-31T00:26:29;13.60;99.90
24148;DHT22;12309;51.450;-2.624;2023-08-31T00:28:56;13.50;99.90
24148;DHT22;12309;51.450;-2.624;2023-08-31T00:31:23;13.50;99.90
24148;DHT22;12309;51.450;-2.624;2023-08-31T00:33:49;13.40;99.90
24148;DHT22;12309;51.450;-2.624;2023-08-31T00:36:15;13.70;99.90
24148;DHT22;12309;51.450;-2.624;2023-08-31T00:38:42;13.40;99.90
24148;DHT22;12309;51.450;-2.624;2023-08-31T00:41:07;13.20;99.90
24148;DHT22;12309;51.450;-2.624;2023-08-31T00:43:33;13.40;99.90
24148;DHT22;12309;51.450;-2.624;2023-08-31T00:45:59;13.30;99.90
24148;DHT22;12309;51.450;-2.624;2023-08-31T00:48:25;13.40;99.90
24148;DHT22;12309;51.450;-2.624;2023-08-31T00:50:51;13.20;99.90
24148;DHT22;12309;51.450;-2.624;2023-08-31T00:53:17;13.10;99.90
24148;DHT22;12309;51.450;-2.624;2023-08-31T00:55:45;13.30;99.90
24148;DHT22;12309;51.450;-2.624;2023-08-31T00:58:11;13.20;99.90
24148;DHT22;12309;51.450;-2.624;2023-08-31T01:01:00;13.20;99.90
24148;DHT22;12309;51.450;-2.624;2023-08-31T01:03:42;13.00;99.90
24148;DHT22;12309;51.450;-2.624;2023-08-31T01:11:34;13.00;99.90
24148;DHT22;12309;51.450;-2.624;2023-08-31T01:14:12;13.00;99.90
24148;DHT22;12309;51.450;-2.624;2023-08-31T01:16:42;12.90;99.90
24148;DHT22;12309;51.450;-2.624;2023-08-31T01:22:02;13.00;99.90
24148;DHT22;12309;51.450;-2.624;2023-08-31T01:24:30;13.00;99.90
24148;DHT22;12309;51.450;-2.624;2023-08-31T01:26:56;12.90;99.90
24148;DHT22;12309;51.450;-2.624;2023-08-31T01:29:22;13.00;99.90
24148;DHT22;12309;51.450;-2.624;2023-08-31T01:31:48;13.00;99.90
24148;DHT22;12309;51.450;-2.624;2023-08-31T01:34:14;12.80;99.90
24148;DHT22;12309;51.450;-2.624;2023-08-31T01:36:44;12.80;99.90
24148;DHT22;12309;51.450;-2.624;2023-08-31T01:39:45;12.40;99.90
24148;DHT22;12309;51.450;-2.624;2023-08-31T01:42:13;13.00;99.90
24148;DHT22;12309;51.450;-2.624;2023-08-31T01:44:42;12.90;99.90
24148;DHT22;12309;51.450;-2.624;2023-08-31T01:47:08;12.90;99.90
24148;DHT22;12309;51.450;-2.624;2023-08-31T01:49:38;12.90;99.90
24148;DHT22;12309;51.450;-2.624;2023-08-31T01:52:05;13.10;99.90
24148;DHT22;12309;51.450;-2.624;2023-08-31T01:54:31;13.20;99.90
24148;DHT22;12309;51.450;-2.624;2023-08-31T01:56:57;12.80;99.90
24148;DHT22;12309;51.450;-2.624;2023-08-31T01:59:22;13.00;99.90
24148;DHT22;12309;51.450;-2.624;2023-08-31T02:01:48;13.00;99.90
24148;DHT22;12309;51.450;-2.624;2023-08-31T02:04:13;13.30;99.90
24148;DHT22;12309;51.450;-2.624;2023-08-31T02:09:05;13.10;99.90
24148;DHT22;12309;51.450;-2.624;2023-08-31T02:11:31;13.10;99.90
24148;DHT22;12309;51.450;-2.624;2023-08-31T02:13:58;13.10;99.90
24148;DHT22;12309;51.450;-2.624;2023-08-31T02:16:23;13.10;99.90
24148;DHT22;12309;51.450;-2.624;2023-08-31T02:18:49;13.10;99.90
24148;DHT22;12309;51.450;-2.624;2023-08-31T02:21:15;12.70;99.90
24148;DHT22;12309;51.450;-2.624;2023-08-31T02:23:40;13.20;99.90
24148;DHT22;12309;51.450;-2.624;2023-08-31T02:26:06;13.00;99.90
24148;DHT22;12309;51.450;-2.624;2023-08-31T02:28:31;13.30;99.90
24148;DHT22;12309;51.450;-2.624;2023-08-31T02:30:58;13.10;99.90
24148;DHT22;12309;51.450;-2.624;2023-08-31T02:33:25;13.10;99.90
24148;DHT22;12309;51.450;-2.624;2023-08-31T02:35:50;13.20;99.90
24148;DHT22;12309;51.450;-2.624;2023-08-31T02:38:16;13.20;99.90
24148;DHT22;12309;51.450;-2.624;2023-08-31T02:40:41;13.20;99.90
24148;DHT22;12309;51.450;-2.624;2023-08-31T02:43:07;13.10;99.90
24148;DHT22;12309;51.450;-2.624;2023-08-31T02:45:34;13.20;99.90
24148;DHT22;12309;51.450;-2.624;2023-08-31T02:47:59;13.30;99.90
24148;DHT22;12309;51.450;-2.624;2023-08-31T02:50:25;13.20;99.90
24148;DHT22;12309;51.450;-2.624;2023-08-31T02:52:51;13.10;99.90
24148;DHT22;12309;51.450;-2.624;2023-08-31T02:55:16;13.10;99.90
24148;DHT22;12309;51.450;-2.624;2023-08-31T02:57:42;13.10;99.90
24148;DHT22;12309;51.450;-2.624;2023-08-31T03:00:07;13.00;99.90
24148;DHT22;12309;51.450;-2.624;2023-08-31T03:02:38;13.30;99.90
24148;DHT22;12309;51.450;-2.624;2023-08-31T03:05:04;13.00;99.90
24148;DHT22;12309;51.450;-2.624;2023-08-31T03:07:30;13.10;99.90
24148;DHT22;12309;51.450;-2.624;2023-08-31T03:09:55;13.20;99.90
24148;DHT22;12309;51.450;-2.624;2023-08-31T03:12:21;13.00;99.90
24148;DHT22;12309;51.450;-2.624;2023-08-31T03:14:47;13.10;99.90
24148;DHT22;12309;51.450;-2.624;2023-08-31T03:17:13;13.20;99.90
24148;DHT22;12309;51.450;-2.624;2023-08-31T03:19:39;12.90;99.90
24148;DHT22;12309;51.450;-2.624;2023-08-31T03:22:04;13.20;99.90
24148;DHT22;12309;51.450;-2.624;2023-08-31T03:24:32;13.10;99.90
24148;DHT22;12309;51.450;-2.624;2023-08-31T03:26:58;13.00;99.90
24148;DHT22;12309;51.450;-2.624;2023-08-31T03:29:23;13.10;99.90
24148;DHT22;12309;51.450;-2.624;2023-08-31T03:31:49;13.20;99.90
24148;DHT22;12309;51.450;-2.624;2023-08-31T03:34:15;13.10;99.90
24148;DHT22;12309;51.450;-2.624;2023-08-31T03:36:41;13.40;99.90
24148;DHT22;12309;51.450;-2.624;2023-08-31T03:39:06;13.10;99.90
24148;DHT22;12309;51.450;-2.624;2023-08-31T03:44:00;13.10;99.90
24148;DHT22;12309;51.450;-2.624;2023-08-31T03:46:26;13.00;99.90
24148;DHT22;12309;51.450;-2.624;2023-08-31T03:48:52;12.90;99.90
24148;DHT22;12309;51.450;-2.624;2023-08-31T03:51:17;13.00;99.90
24148;DHT22;12309;51.450;-2.624;2023-08-31T03:53:43;13.10;99.90
24148;DHT22;12309;51.450;-2.624;2023-08-31T03:56:10;13.20;99.90
24148;DHT22;12309;51.450;-2.624;2023-08-31T03:58:37;13.30;99.90
24148;DHT22;12309;51.450;-2.624;2023-08-31T04:01:02;13.10;99.90
24148;DHT22;12309;51.450;-2.624;2023-08-31T04:03:28;13.20;99.90
24148;DHT22;12309;51.450;-2.624;2023-08-31T04:05:57;13.10;99.90
24148;DHT22;12309;51.450;-2.624;2023-08-31T04:08:23;12.90;99.90
24148;DHT22;12309;51.450;-2.624;2023-08-31T04:10:48;14.20;99.90
24148;DHT22;12309;51.450;-2.624;2023-08-31T04:13:14;13.20;99.90
24148;DHT22;12309;51.450;-2.624;2023-08-31T04:15:39;13.20;99.90
24148;DHT22;12309;51.450;-2.624;2023-08-31T04:18:05;13.10;99.90
24148;DHT22;12309;51.450;-2.624;2023-08-31T04:20:33;13.10;99.90
24148;DHT22;12309;51.450;-2.624;2023-08-31T04:22:58;13.00;99.90
24148;DHT22;12309;51.450;-2.624;2023-08-31T04:25:24;13.20;99.90
24148;DHT22;12309;51.450;-2.624;2023-08-31T04:27:49;12.90;99.90
24148;DHT22;12309;51.450;-2.624;2023-08-31T04:30:15;13.20;99.90
24148;DHT22;12309;51.450;-2.624;2023-08-31T04:32:41;13.00;99.90
24148;DHT22;12309;51.450;-2.624;2023-08-31T04:37:33;13.20;99.90
24148;DHT22;12309;51.450;-2.624;2023-08-31T04:39:59;13.20;99.90
24148;DHT22;12309;51.450;-2.624;2023-08-31T04:42:25;13.10;99.90
24148;DHT22;12309;51.450;-2.624;2023-08-31T04:44:50;13.10;99.90
24148;DHT22;12309;51.450;-2.624;2023-08-31T04:47:16;13.00;99.90
24148;DHT22;12309;51.450;-2.624;2023-08-31T04:49:42;13.20;99.90
24148;DHT22;12309;51.450;-2.624;2023-08-31T04:52:08;13.00;99.90
24148;DHT22;12309;51.450;-2.624;2023-08-31T04:56:59;13.00;99.90
24148;DHT22;12309;51.450;-2.624;2023-08-31T04:59:25;13.20;99.90
24148;DHT22;12309;51.450;-2.624;2023-08-31T05:01:51;13.00;99.90
24148;DHT22;12309;51.450;-2.624;2023-08-31T05:04:16;13.00;99.90
24148;DHT22;12309;51.450;-2.624;2023-08-31T05:06:42;13.60;99.90
24148;DHT22;12309;51.450;-2.624;2023-08-31T05:09:07;13.10;99.90
24148;DHT22;12309;51.450;-2.624;2023-08-31T05:11:33;13.40;99.90
24148;DHT22;12309;51.450;-2.624;2023-08-31T05:13:59;13.20;99.90
24148;DHT22;12309;51.450;-2.624;2023-08-31T05:16:24;13.30;99.90
24148;DHT22;12309;51.450;-2.624;2023-08-31T05:18:50;13.30;99.90
24148;DHT22;12309;51.450;-2.624;2023-08-31T05:21:16;13.70;99.90
24148;DHT22;12309;51.450;-2.624;2023-08-31T05:26:08;13.20;99.90
24148;DHT22;12309;51.450;-2.624;2023-08-31T05:28:33;13.30;99.90
24148;DHT22;12309;51.450;-2.624;2023-08-31T05:31:01;13.90;99.90
24148;DHT22;12309;51.450;-2.624;2023-08-31T05:33:27;13.50;99.90
24148;DHT22;12309;51.450;-2.624;2023-08-31T05:35:54;13.30;99.90
24148;DHT22;12309;51.450;-2.624;2023-08-31T05:38:20;13.50;99.90
24148;DHT22;12309;51.450;-2.624;2023-08-31T05:40:46;13.60;99.90
24148;DHT22;12309;51.450;-2.624;2023-08-31T05:43:15;13.60;99.90
24148;DHT22;12309;51.450;-2.624;2023-08-31T05:45:41;13.60;99.90
24148;DHT22;12309;51.450;-2.624;2023-08-31T05:48:07;13.50;99.90
24148;DHT22;12309;51.450;-2.624;2023-08-31T05:50:33;13.50;99.90
24148;DHT22;12309;51.450;-2.624;2023-08-31T05:55:25;13.80;99.90
24148;DHT22;12309;51.450;-2.624;2023-08-31T05:57:51;13.60;99.90
24148;DHT22;12309;51.450;-2.624;2023-08-31T06:00:17;13.80;99.90
24148;DHT22;12309;51.450;-2.624;2023-08-31T06:02:43;13.40;99.90
24148;DHT22;12309;51.450;-2.624;2023-08-31T06:05:12;13.60;99.90
24148;DHT22;12309;51.450;-2.624;2023-08-31T06:07:38;13.60;99.90
24148;DHT22;12309;51.450;-2.624;2023-08-31T06:10:05;13.60;99.90
24148;DHT22;12309;51.450;-2.624;2023-08-31T06:12:31;13.70;99.90
24148;DHT22;12309;51.450;-2.624;2023-08-31T06:14:57;13.80;99.90
24148;DHT22;12309;51.450;-2.624;2023-08-31T06:17:22;13.50;99.90
24148;DHT22;12309;51.450;-2.624;2023-08-31T06:19:48;13.90;99.90
24148;DHT22;12309;51.450;-2.624;2023-08-31T06:22:13;14.20;99.90
24148;DHT22;12309;51.450;-2.624;2023-08-31T06:24:39;13.80;99.90
24148;DHT22;12309;51.450;-2.624;2023-08-31T06:27:05;14.00;99.90
24148;DHT22;12309;51.450;-2.624;2023-08-31T06:29:30;13.90;99.90
24148;DHT22;12309;51.450;-2.624;2023-08-31T06:31:56;13.90;99.90
24148;DHT22;12309;51.450;-2.624;2023-08-31T06:34:22;13.70;99.90
24148;DHT22;12309;51.450;-2.624;2023-08-31T06:36:48;13.60;99.90
24148;DHT22;12309;51.450;-2.624;2023-08-31T06:39:13;13.70;99.90
24148;DHT22;12309;51.450;-2.624;2023-08-31T06:41:39;13.80;99.90
24148;DHT22;12309;51.450;-2.624;2023-08-31T06:44:05;13.80;99.90
24148;DHT22;12309;51.450;-2.624;2023-08-31T06:46:30;13.80;99.90
24148;DHT22;12309;51.450;-2.624;2023-08-31T06:49:00;13.60;99.90
24148;DHT22;12309;51.450;-2.624;2023-08-31T06:51:25;13.90;99.90
24148;DHT22;12309;51.450;-2.624;2023-08-31T06:53:51;13.90;99.90
24148;DHT22;12309;51.450;-2.624;2023-08-31T06:56:16;13.70;99.90
24148;DHT22;12309;51.450;-2.624;2023-08-31T06:58:42;13.90;99.90
24148;DHT22;12309;51.450;-2.624;2023-08-31T07:01:08;14.10;99.90
24148;DHT22;12309;51.450;-2.624;2023-08-31T07:03:34;14.00;99.90
24148;DHT22;12309;51.450;-2.624;2023-08-31T07:06:00;14.00;99.90
24148;DHT22;12309;51.450;-2.624;2023-08-31T07:08:26;13.90;99.90
24148;DHT22;12309;51.450;-2.624;2023-08-31T07:10:52;13.70;99.90
24148;DHT22;12309;51.450;-2.624;2023-08-31T07:13:17;13.80;99.90
24148;DHT22;12309;51.450;-2.624;2023-08-31T07:15:43;13.60;99.90
24148;DHT22;12309;51.450;-2.624;2023-08-31T07:18:09;13.90;99.90
24148;DHT22;12309;51.450;-2.624;2023-08-31T07:20:35;13.80;99.90
24148;DHT22;12309;51.450;-2.624;2023-08-31T07:23:00;13.80;99.90
24148;DHT22;12309;51.450;-2.624;2023-08-31T07:25:26;13.70;99.90
24148;DHT22;12309;51.450;-2.624;2023-08-31T07:27:52;13.80;99.90
24148;DHT22;12309;51.450;-2.624;2023-08-31T07:30:18;13.80;99.90
24148;DHT22;12309;51.450;-2.624;2023-08-31T07:32:44;13.60;99.90
24148;DHT22;12309;51.450;-2.624;2023-08-31T07:35:09;13.80;99.90
24148;DHT22;12309;51.450;-2.624;2023-08-31T07:37:35;13.80;99.90
24148;DHT22;12309;51.450;-2.624;2023-08-31T07:40:03;13.90;99.90
24148;DHT22;12309;51.450;-2.624;2023-08-31T07:42:34;14.00;99.90
24148;DHT22;12309;51.450;-2.624;2023-08-31T07:44:59;13.90;99.90
24148;DHT22;12309;51.450;-2.624;2023-08-31T07:47:25;13.90;99.90
24148;DHT22;12309;51.450;-2.624;2023-08-31T07:49:50;13.90;99.90
24148;DHT22;12309;51.450;-2.624;2023-08-31T07:52:16;13.90;99.90
24148;DHT22;12309;51.450;-2.624;2023-08-31T07:54:41;14.30;99.90
24148;DHT22;12309;51.450;-2.624;2023-08-31T07:57:07;13.70;99.90
24148;DHT22;12309;51.450;-2.624;2023-08-31T07:59:33;14.00;99.90
24148;DHT22;12309;51.450;-2.624;2023-08-31T08:01:59;13.90;99.90
24148;DHT22;12309;51.450;-2.624;2023-08-31T08:04:24;13.80;99.90
24148;DHT22;12309;51.450;-2.624;2023-08-31T08:06:51;13.90;99.90
24148;DHT22;12309;51.450;-2.624;2023-08-31T08:09:17;13.50;99.90
24148;DHT22;12309;51.450;-2.624;2023-08-31T08:11:43;13.70;99.90
24148;DHT22;12309;51.450;-2.624;2023-08-31T08:14:08;13.70;99.90
24148;DHT22;12309;51.450;-2.624;2023-08-31T08:16:34;13.90;99.90
24148;DHT22;12309;51.450;-2.624;2023-08-31T08:19:01;13.90;99.90
24148;DHT22;12309;51.450;-2.624;2023-08-31T08:21:26;13.90;99.90
24148;DHT22;12309;51.450;-2.624;2023-08-31T08:23:52;14.10;99.90
24148;DHT22;12309;51.450;-2.624;2023-08-31T08:26:18;14.10;99.90
24148;DHT22;12309;51.450;-2.624;2023-08-31T08:28:43;14.10;99.90
24148;DHT22;12309;51.450;-2.624;2023-08-31T08:31:09;14.40;99.90
24148;DHT22;12309;51.450;-2.624;2023-08-31T08:33:35;14.30;99.90
24148;DHT22;12309;51.450;-2.624;2023-08-31T08:36:01;14.40;99.90
24148;DHT22;12309;51.450;-2.624;2023-08-31T08:38:26;14.40;99.90
24148;DHT22;12309;51.450;-2.624;2023-08-31T08:40:52;14.50;99.90
24148;DHT22;12309;51.450;-2.624;2023-08-31T08:43:25;14.60;99.90
24148;DHT22;12309;51.450;-2.624;2023-08-31T08:45:52;14.80;99.90
24148;DHT22;12309;51.450;-2.624;2023-08-31T08:48:19;14.40;99.90
24148;DHT22;12309;51.450;-2.624;2023-08-31T08:50:45;14.30;99.90
24148;DHT22;12309;51.450;-2.624;2023-08-31T08:55:40;13.90;99.90
24148;DHT22;12309;51.450;-2.624;2023-08-31T08:58:06;13.90;99.90
24148;DHT22;12309;51.450;-2.624;2023-08-31T09:00:32;14.00;99.90
24148;DHT22;12309;51.450;-2.624;2023-08-31T09:03:00;15.00;99.90
24148;DHT22;12309;51.450;-2.624;2023-08-31T09:08:06;14.20;99.90
24148;DHT22;12309;51.450;-2.624;2023-08-31T09:10:44;14.00;99.90
24148;DHT22;12309;51.450;-2.624;2023-08-31T09:13:14;13.90;99.90
24148;DHT22;12309;51.450;-2.624;2023-08-31T09:15:45;14.10;99.90
24148;DHT22;12309;51.450;-2.624;2023-08-31T09:18:31;14.00;99.90
24148;DHT22;12309;51.450;-2.624;2023-08-31T09:21:00;13.70;99.90
24148;DHT22;12309;51.450;-2.624;2023-08-31T09:23:26;13.80;99.90
24148;DHT22;12309;51.450;-2.624;2023-08-31T09:25:54;13.70;99.90
24148;DHT22;12309;51.450;-2.624;2023-08-31T09:28:22;13.70;99.90
24148;DHT22;12309;51.450;-2.624;2023-08-31T09:30:49;13.60;99.90
24148;DHT22;12309;51.450;-2.624;2023-08-31T09:33:16;13.50;99.90
24148;DHT22;12309;51.450;-2.624;2023-08-31T09:35:54;13.90;99.90
24148;DHT22;12309;51.450;-2.624;2023-08-31T09:38:21;13.50;99.90
24148;DHT22;12309;51.450;-2.624;2023-08-31T09:40:47;13.40;99.90
24148;DHT22;12309;51.450;-2.624;2023-08-31T09:43:22;13.70;99.90
24148;DHT22;12309;51.450;-2.624;2023-08-31T09:45:49;13.50;99.90
24148;DHT22;12309;51.450;-2.624;2023-08-31T09:48:16;13.50;99.90
24148;DHT22;12309;51.450;-2.624;2023-08-31T09:50:44;13.70;99.90
24148;DHT22;12309;51.450;-2.624;2023-08-31T09:53:11;13.40;99.90
24148;DHT22;12309;51.450;-2.624;2023-08-31T09:55:39;13.40;99.90
24148;DHT22;12309;51.450;-2.624;2023-08-31T09:58:07;13.40;99.90
24148;DHT22;12309;51.450;-2.624;2023-08-31T10:00:35;13.50;99.90
24148;DHT22;12309;51.450;-2.624;2023-08-31T10:03:03;13.30;99.90
24148;DHT22;12309;51.450;-2.624;2023-08-31T10:05:30;13.30;99.90
24148;DHT22;12309;51.450;-2.624;2023-08-31T10:07:57;13.60;99.90
24148;DHT22;12309;51.450;-2.624;2023-08-31T10:10:24;13.20;99.90
24148;DHT22;12309;51.450;-2.624;2023-08-31T10:12:49;13.40;99.90
24148;DHT22;12309;51.450;-2.624;2023-08-31T10:15:18;13.60;99.90
24148;DHT22;12309;51.450;-2.624;2023-08-31T10:17:44;13.80;99.90
24148;DHT22;12309;51.450;-2.624;2023-08-31T10:20:11;13.70;99.90
24148;DHT22;12309;51.450;-2.624;2023-08-31T10:22:38;13.90;99.90
24148;DHT22;12309;51.450;-2.624;2023-08-31T10:25:05;16.10;99.90
24148;DHT22;12309;51.450;-2.624;2023-08-31T10:27:44;13.80;99.90
24148;DHT22;12309;51.450;-2.624;2023-08-31T10:30:24;14.20;99.90
24148;DHT22;12309;51.450;-2.624;2023-08-31T10:38:22;14.10;99.90
24148;DHT22;12309;51.450;-2.624;2023-08-31T10:43:58;14.30;99.90
24148;DHT22;12309;51.450;-2.624;2023-08-31T10:46:35;14.00;99.90
24148;DHT22;12309;51.450;-2.624;2023-08-31T10:49:13;13.90;99.90
24148;DHT22;12309;51.450;-2.624;2023-08-31T10:51:41;14.30;99.90
24148;DHT22;12309;51.450;-2.624;2023-08-31T10:54:21;14.20;99.90
24148;DHT22;12309;51.450;-2.624;2023-08-31T10:56:55;14.50;99.90
24148;DHT22;12309;51.450;-2.624;2023-08-31T10:59:27;14.40;99.90
24148;DHT22;12309;51.450;-2.624;2023-08-31T11:02:06;14.10;99.90
24148;DHT22;12309;51.450;-2.624;2023-08-31T11:04:55;14.20;99.90
24148;DHT22;12309;51.450;-2.624;2023-08-31T11:07:26;14.10;99.90
24148;DHT22;12309;51.450;-2.624;2023-08-31T11:09:52;14.20;99.90
24148;DHT22;12309;51.450;-2.624;2023-08-31T11:12:22;14.30;99.90
24148;DHT22;12309;51.450;-2.624;2023-08-31T11:14:49;14.60;99.90
24148;DHT22;12309;51.450;-2.624;2023-08-31T11:17:14;14.10;99.90
24148;DHT22;12309;51.450;-2.624;2023-08-31T11:19:41;14.10;99.90
24148;DHT22;12309;51.450;-2.624;2023-08-31T11:24:35;14.40;99.90
24148;DHT22;12309;51.450;-2.624;2023-08-31T11:27:01;14.20;99.90
24148;DHT22;12309;51.450;-2.624;2023-08-31T11:29:29;14.50;99.90
24148;DHT22;12309;51.450;-2.624;2023-08-31T11:31:56;14.40;99.90
24148;DHT22;12309;51.450;-2.624;2023-08-31T11:34:24;14.50;99.90
24148;DHT22;12309;51.450;-2.624;2023-08-31T11:36:49;14.40;99.90
24148;DHT22;12309;51.450;-2.624;2023-08-31T11:39:17;14.20;99.90
24148;DHT22;12309;51.450;-2.624;2023-08-31T11:41:43;14.40;99.90
24148;DHT22;12309;51.450;-2.624;2023-08-31T11:44:12;14.70;99.90
24148;DHT22;12309;51.450;-2.624;2023-08-31T11:46:39;14.70;99.90
24148;DHT22;12309;51.450;-2.624;2023-08-31T11:49:08;14.40;99.90
24148;DHT22;12309;51.450;-2.624;2023-08-31T11:51:34;14.70;99.90
24148;DHT22;12309;51.450;-2.624;2023-08-31T11:54:02;14.90;99.90
24148;DHT22;12309;51.450;-2.624;2023-08-31T11:56:38;14.70;99.90
24148;DHT22;12309;51.450;-2.624;2023-08-31T11:59:08;14.70;99.90
24148;DHT22;12309;51.450;-2.624;2023-08-31T12:01:40;15.00;99.90
24148;DHT22;12309;51.450;-2.624;2023-08-31T12:04:24;15.00;99.90
24148;DHT22;12309;51.450;-2.624;2023-08-31T12:06:58;16.80;99.90
24148;DHT22;12309;51.450;-2.624;2023-08-31T12:09:27;13.50;99.90
24148;DHT22;12309;51.450;-2.624;2023-08-31T12:11:53;15.10;99.90
24148;DHT22;12309;51.450;-2.624;2023-08-31T12:14:21;15.10;99.90
24148;DHT22;12309;51.450;-2.624;2023-08-31T12:16:47;15.00;99.90
24148;DHT22;12309;51.450;-2.624;2023-08-31T12:19:13;15.00;99.90
24148;DHT22;12309;51.450;-2.624;2023-08-31T12:21:39;15.00;99.90
24148;DHT22;12309;51.450;-2.624;2023-08-31T12:24:05;15.30;99.90
24148;DHT22;12309;51.450;-2.624;2023-08-31T12:26:31;15.40;99.90
24148;DHT22;12309;51.450;-2.624;2023-08-31T12:28:57;15.40;99.90
24148;DHT22;12309;51.450;-2.624;2023-08-31T12:31:24;15.10;99.90
24148;DHT22;12309;51.450;-2.624;2023-08-31T12:33:49;15.00;99.90
24148;DHT22;12309;51.450;-2.624;2023-08-31T12:38:41;15.20;99.90
24148;DHT22;12309;51.450;-2.624;2023-08-31T12:41:07;15.20;99.90
24148;DHT22;12309;51.450;-2.624;2023-08-31T12:43:34;15.30;99.90
24148;DHT22;12309;51.450;-2.624;2023-08-31T12:45:59;15.40;99.90
24148;DHT22;12309;51.450;-2.624;2023-08-31T12:48:26;15.40;99.90
24148;DHT22;12309;51.450;-2.624;2023-08-31T12:50:51;15.40;99.90
24148;DHT22;12309;51.450;-2.624;2023-08-31T12:53:20;15.50;99.90
24148;DHT22;12309;51.450;-2.624;2023-08-31T12:55:46;15.50;99.90
24148;DHT22;12309;51.450;-2.624;2023-08-31T12:58:11;15.50;99.90
24148;DHT22;12309;51.450;-2.624;2023-08-31T13:00:37;15.60;99.90
24148;DHT22;12309;51.450;-2.624;2023-08-31T13:05:29;15.60;99.90
24148;DHT22;12309;51.450;-2.624;2023-08-31T13:07:55;15.60;99.90
24148;DHT22;12309;51.450;-2.624;2023-08-31T13:10:20;15.70;99.90
24148;DHT22;12309;51.450;-2.624;2023-08-31T13:12:46;15.50;99.90
24148;DHT22;12309;51.450;-2.624;2023-08-31T13:15:12;15.50;99.90
24148;DHT22;12309;51.450;-2.624;2023-08-31T13:17:40;15.70;99.90
24148;DHT22;12309;51.450;-2.624;2023-08-31T13:20:06;15.40;99.90
24148;DHT22;12309;51.450;-2.624;2023-08-31T13:22:33;15.40;99.90
24148;DHT22;12309;51.450;-2.624;2023-08-31T13:24:59;15.30;99.90
24148;DHT22;12309;51.450;-2.624;2023-08-31T13:27:25;15.30;99.90
24148;DHT22;12309;51.450;-2.624;2023-08-31T13:29:51;15.50;99.90
24148;DHT22;12309;51.450;-2.624;2023-08-31T13:32:16;15.60;99.90
24148;DHT22;12309;51.450;-2.624;2023-08-31T13:34:42;15.40;99.90
24148;DHT22;12309;51.450;-2.624;2023-08-31T13:37:07;15.70;99.90
24148;DHT22;12309;51.450;-2.624;2023-08-31T13:39:35;15.80;99.90
24148;DHT22;12309;51.450;-2.624;2023-08-31T13:42:05;15.70;99.90
24148;DHT22;12309;51.450;-2.624;2023-08-31T13:44:32;15.90;99.90
24148;DHT22;12309;51.450;-2.624;2023-08-31T13:46:58;16.00;99.90
24148;DHT22;12309;51.450;-2.624;2023-08-31T13:49:23;16.00;99.90
24148;DHT22;12309;51.450;-2.624;2023-08-31T13:51:49;16.10;99.90
24148;DHT22;12309;51.450;-2.624;2023-08-31T13:54:15;15.80;99.90
24148;DHT22;12309;51.450;-2.624;2023-08-31T13:56:40;15.80;99.90
24148;DHT22;12309;51.450;-2.624;2023-08-31T13:59:06;15.60;99.90
24148;DHT22;12309;51.450;-2.624;2023-08-31T14:01:32;15.60;99.90
24148;DHT22;12309;51.450;-2.624;2023-08-31T14:03:57;15.90;99.90
24148;DHT22;12309;51.450;-2.624;2023-08-31T14:06:23;15.90;99.90
24148;DHT22;12309;51.450;-2.624;2023-08-31T14:08:48;19.90;99.90
24148;DHT22;12309;51.450;-2.624;2023-08-31T14:13:43;16.00;99.90
24148;DHT22;12309;51.450;-2.624;2023-08-31T14:16:08;15.80;99.90
24148;DHT22;12309;51.450;-2.624;2023-08-31T14:18:34;15.90;99.90
24148;DHT22;12309;51.450;-2.624;2023-08-31T14:21:00;15.90;99.90
24148;DHT22;12309;51.450;-2.624;2023-08-31T14:23:26;16.10;99.90
24148;DHT22;12309;51.450;-2.624;2023-08-31T14:25:52;16.20;99.90
24148;DHT22;12309;51.450;-2.624;2023-08-31T14:28:17;16.20;99.90
24148;DHT22;12309;51.450;-2.624;2023-08-31T14:30:43;16.30;99.90
24148;DHT22;12309;51.450;-2.624;2023-08-31T14:33:09;16.40;99.90
24148;DHT22;12309;51.450;-2.624;2023-08-31T14:35:38;16.30;99.90
24148;DHT22;12309;51.450;-2.624;2023-08-31T14:38:04;16.40;99.90
24148;DHT22;12309;51.450;-2.624;2023-08-31T14:40:30;16.50;99.90
24148;DHT22;12309;51.450;-2.624;2023-08-31T14:42:56;16.50;99.90
24148;DHT22;12309;51.450;-2.624;2023-08-31T14:45:21;16.50;99.90
24148;DHT22;12309;51.450;-2.624;2023-08-31T14:47:47;16.60;99.90
24148;DHT22;12309;51.450;-2.624;2023-08-31T14:50:12;16.60;99.90
24148;DHT22;12309;51.450;-2.624;2023-08-31T14:52:38;16.50;99.90
24148;DHT22;12309;51.450;-2.624;2023-08-31T14:55:04;16.30;99.90
24148;DHT22;12309;51.450;-2.624;2023-08-31T14:57:30;16.30;99.90
24148;DHT22;12309;51.450;-2.624;2023-08-31T14:59:56;16.50;99.90
24148;DHT22;12309;51.450;-2.624;2023-08-31T15:02:24;16.40;99.90
24148;DHT22;12309;51.450;-2.624;2023-08-31T15:04:50;16.50;99.90
24148;DHT22;12309;51.450;-2.624;2023-08-31T15:07:16;16.60;99.90
24148;DHT22;12309;51.450;-2.624;2023-08-31T15:09:42;16.80;99.90
24148;DHT22;12309;51.450;-2.624;2023-08-31T15:12:08;16.60;99.90
24148;DHT22;12309;51.450;-2.624;2023-08-31T15:14:33;16.70;99.90
24148;DHT22;12309;51.450;-2.624;2023-08-31T15:16:59;16.90;99.90
24148;DHT22;12309;51.450;-2.624;2023-08-31T15:19:25;16.60;99.90
24148;DHT22;12309;51.450;-2.624;2023-08-31T15:21:50;16.50;99.90
24148;DHT22;12309;51.450;-2.624;2023-08-31T15:24:16;16.70;99.90
24148;DHT22;12309;51.450;-2.624;2023-08-31T15:26:42;16.80;99.90
24148;DHT22;12309;51.450;-2.624;2023-08-31T15:29:08;16.80;99.90
24148;DHT22;12309;51.450;-2.624;2023-08-31T15:31:34;17.00;99.90
24148;DHT22;12309;51.450;-2.624;2023-08-31T15:34:00;17.60;99.90
24148;DHT22;12309;51.450;-2.624;2023-08-31T15:36:25;17.10;99.90
24148;DHT22;12309;51.450;-2.624;2023-08-31T15:38:51;16.90;99.90
24148;DHT22;12309;51.450;-2.624;2023-08-31T15:43:43;17.00;99.90
24148;DHT22;12309;51.450;-2.624;2023-08-31T15:46:08;17.10;99.90
24148;DHT22;12309;51.450;-2.624;2023-08-31T15:48:34;16.90;99.90
24148;DHT22;12309;51.450;-2.624;2023-08-31T15:51:00;17.10;99.90
24148;DHT22;12309;51.450;-2.624;2023-08-31T15:53:26;17.40;99.90
24148;DHT22;12309;51.450;-2.624;2023-08-31T15:55:53;17.40;99.90
24148;DHT22;12309;51.450;-2.624;2023-08-31T16:00:46;17.70;99.90
24148;DHT22;12309;51.450;-2.624;2023-08-31T16:03:12;17.80;99.90
24148;DHT22;12309;51.450;-2.624;2023-08-31T16:05:38;17.80;99.90
24148;DHT22;12309;51.450;-2.624;2023-08-31T16:08:04;17.80;99.90